Time;durP1;ratioP1;P1;durP2;ratioP2;P2;SDS_P1;SDS_P2;PMS_P1;PMS_P2;Temp;Humidity;BMP_temperature;BMP_pressure;BME280_temperature;BME280_humidity;BME280_pressure;Samples;Min_cycle;Max_cycle;Signal;HPM_P1;HPM_P2
2021/12/02 00:00:36;;;;;;;2.23;2.13;;;;;;;;;;4994513;28;20403;-72
2021/12/02 00:03:06;;;;;;;1.93;1.83;;;;;;;;;;4994444;28;20881;-70
2021/12/02 00:05:32;;;;;;;1.67;1.57;;;;;;;;;;4994516;28;20433;-72
2021/12/02 00:07:58;;;;;;;2.07;1.97;;;;;;;;;;4994255;28;20479;-71
2021/12/02 00:10:28;;;;;;;1.90;1.90;;;;;;;;;;4994351;28;20414;-70
2021/12/02 00:12:56;;;;;;;1.40;1.40;;;;;;;;;;4994314;28;20426;-71
2021/12/02 00:15:25;;;;;;;4.23;1.50;;;;;;;;;;4994329;28;20500;-72
2021/12/02 00:18:08;;;;;;;1.50;1.40;;;;;;;;;;4976806;28;20524;-70
2021/12/02 00:23:28;;;;;;;1.70;1.70;;;;;;;;;;4993879;28;20397;-71
2021/12/02 00:25:56;;;;;;;2.40;2.03;;;;;;;;;;4994032;28;20739;-72
2021/12/02 00:28:24;;;;;;;1.90;1.70;;;;;;;;;;4994141;28;20405;-68
2021/12/02 00:30:50;;;;;;;1.90;1.53;;;;;;;;;;4994043;28;20941;-69
2021/12/02 00:33:17;;;;;;;1.27;1.27;;;;;;;;;;4994024;28;20461;-70
2021/12/02 00:35:44;;;;;;;1.97;1.87;;;;;;;;;;4993908;28;20422;-67
2021/12/02 00:38:11;;;;;;;1.80;1.70;;;;;;;;;;4994017;28;20441;-66
2021/12/02 00:40:38;;;;;;;4.00;2.00;;;;;;;;;;4993991;28;20413;-66
2021/12/02 00:43:04;;;;;;;1.40;1.37;;;;;;;;;;4993990;28;20417;-66
2021/12/02 00:45:30;;;;;;;5.03;2.10;;;;;;;;;;4993974;28;20553;-67
2021/12/02 00:47:57;;;;;;;1.03;1.03;;;;;;;;;;4994210;28;20473;-67
2021/12/02 00:50:23;;;;;;;1.90;1.47;;;;;;;;;;4993917;28;20420;-71
2021/12/02 00:52:50;;;;;;;1.00;1.00;;;;;;;;;;4993864;28;20900;-71
2021/12/02 00:55:16;;;;;;;2.00;1.30;;;;;;;;;;4993827;28;20468;-71
2021/12/02 00:57:43;;;;;;;0.90;0.90;;;;;;;;;;4993853;28;20412;-69
2021/12/02 01:00:09;;;;;;;1.20;1.20;;;;;;;;;;4993905;28;20468;-71
2021/12/02 01:02:37;;;;;;;1.20;1.20;;;;;;;;;;4993823;28;20489;-68
2021/12/02 01:05:04;;;;;;;1.20;1.20;;;;;;;;;;4993811;28;20410;-71
2021/12/02 01:07:30;;;;;;;2.20;1.53;;;;;;;;;;4993681;28;20888;-70
2021/12/02 01:09:57;;;;;;;1.50;1.50;;;;;;;;;;4993758;28;20497;-71
2021/12/02 01:12:23;;;;;;;1.53;1.43;;;;;;;;;;4993754;28;20417;-71
2021/12/02 01:14:49;;;;;;;1.33;1.23;;;;;;;;;;4993658;28;20465;-72
2021/12/02 01:17:15;;;;;;;1.47;1.40;;;;;;;;;;4993699;28;20430;-70
2021/12/02 01:19:40;;;;;;;1.37;1.30;;;;;;;;;;4976196;28;20472;-71
2021/12/02 01:22:07;;;;;;;1.53;1.23;;;;;;;;;;4993691;28;20417;-70
2021/12/02 01:24:34;;;;;;;1.50;1.50;;;;;;;;;;4993621;28;20448;-71
2021/12/02 01:27:02;;;;;;;1.63;1.60;;;;;;;;;;4993573;28;20465;-71
2021/12/02 01:29:28;;;;;;;1.57;1.47;;;;;;;;;;4993655;28;20919;-72
2021/12/02 01:31:59;;;;;;;1.50;1.50;;;;;;;;;;4993586;28;20398;-72
2021/12/02 01:34:26;;;;;;;1.43;1.43;;;;;;;;;;4993739;28;20523;-71
2021/12/02 01:36:53;;;;;;;4.93;1.70;;;;;;;;;;4996908;28;20413;-67
2021/12/02 01:39:19;;;;;;;3.40;1.40;;;;;;;;;;4997349;28;20465;-67
2021/12/02 01:41:53;;;;;;;1.43;1.43;;;;;;;;;;4997043;28;20780;-67
2021/12/02 01:44:20;;;;;;;1.30;1.30;;;;;;;;;;4997001;28;20868;-67
2021/12/02 01:46:47;;;;;;;2.00;1.67;;;;;;;;;;4979522;28;20434;-67
2021/12/02 01:49:14;;;;;;;1.73;1.63;;;;;;;;;;4996909;28;20402;-67
2021/12/02 01:51:47;;;;;;;2.47;1.50;;;;;;;;;;4996905;28;20457;-71
2021/12/02 01:54:15;;;;;;;1.50;1.40;;;;;;;;;;4997002;28;20698;-72
2021/12/02 01:56:43;;;;;;;1.70;1.63;;;;;;;;;;4996761;28;20414;-70
2021/12/02 01:59:11;;;;;;;1.80;1.50;;;;;;;;;;4996746;28;20433;-72
2021/12/02 02:01:38;;;;;;;1.63;1.53;;;;;;;;;;4996712;28;20413;-72
2021/12/02 02:04:04;;;;;;;5.13;2.20;;;;;;;;;;4996788;28;20405;-71
2021/12/02 02:06:31;;;;;;;2.03;1.57;;;;;;;;;;4978941;28;20883;-72
2021/12/02 02:08:58;;;;;;;3.60;1.93;;;;;;;;;;4996549;28;20414;-72
2021/12/02 02:11:25;;;;;;;1.73;1.63;;;;;;;;;;4996548;28;20421;-71
2021/12/02 02:13:51;;;;;;;1.90;1.43;;;;;;;;;;4979005;28;20883;-71
2021/12/02 02:16:17;;;;;;;2.30;1.50;;;;;;;;;;4996469;28;20409;-72
2021/12/02 02:18:44;;;;;;;1.70;1.60;;;;;;;;;;4996513;28;20438;-69
2021/12/02 02:21:13;;;;;;;1.67;1.57;;;;;;;;;;4996755;28;20920;-68
2021/12/02 02:23:46;;;;;;;2.20;2.10;;;;;;;;;;4996579;28;20813;-68
2021/12/02 02:26:13;;;;;;;1.30;1.30;;;;;;;;;;4996541;28;20397;-68
2021/12/02 02:28:39;;;;;;;1.30;1.20;;;;;;;;;;4996332;28;20444;-67
2021/12/02 02:31:05;;;;;;;2.40;2.30;;;;;;;;;;4996226;28;20368;-67
2021/12/02 02:33:37;;;;;;;2.30;1.33;;;;;;;;;;4996113;28;20979;-66
2021/12/02 02:36:04;;;;;;;2.40;1.33;;;;;;;;;;4996002;28;20460;-66
2021/12/02 02:38:30;;;;;;;2.00;1.30;;;;;;;;;;4996007;28;20493;-67
2021/12/02 02:40:59;;;;;;;1.80;1.70;;;;;;;;;;4995998;28;20414;-66
2021/12/02 02:43:26;;;;;;;1.33;1.27;;;;;;;;;;4995988;28;20398;-67
2021/12/02 02:45:52;;;;;;;1.63;1.23;;;;;;;;;;4995884;28;20393;-66
2021/12/02 02:48:18;;;;;;;2.93;1.53;;;;;;;;;;4995079;28;20402;-67
2021/12/02 02:50:44;;;;;;;1.20;1.20;;;;;;;;;;4995869;28;20886;-66
2021/12/02 02:53:15;;;;;;;1.50;1.40;;;;;;;;;;4995605;28;20500;-66
2021/12/02 02:55:44;;;;;;;4.10;2.23;;;;;;;;;;4995732;28;20407;-66
2021/12/02 02:58:23;;;;;;;1.80;1.33;;;;;;;;;;4995762;28;20369;-66
2021/12/02 03:01:00;;;;;;;2.27;1.70;;;;;;;;;;4978263;28;20421;-66
2021/12/02 03:04:15;;;;;;;2.70;1.20;;;;;;;;;;4978119;28;20417;-67
2021/12/02 03:09:04;;;;;;;1.70;1.60;;;;;;;;;;4995798;28;20601;-67
2021/12/02 03:11:39;;;;;;;2.30;1.40;;;;;;;;;;4995408;28;20452;-66
2021/12/02 03:14:11;;;;;;;1.27;1.17;;;;;;;;;;4995254;28;20655;-66
2021/12/02 03:16:44;;;;;;;1.50;1.17;;;;;;;;;;4995314;28;20402;-66
2021/12/02 03:19:11;;;;;;;2.67;1.57;;;;;;;;;;4995262;28;20377;-66
2021/12/02 03:21:37;;;;;;;2.70;1.73;;;;;;;;;;4995220;28;20418;-71
2021/12/02 03:24:03;;;;;;;6.67;2.40;;;;;;;;;;4995414;28;20402;-69
2021/12/02 03:26:31;;;;;;;2.33;1.30;;;;;;;;;;4995132;28;20410;-71
2021/12/02 03:28:57;;;;;;;2.97;1.50;;;;;;;;;;4995125;28;20896;-71
2021/12/02 03:31:24;;;;;;;1.67;1.27;;;;;;;;;;4995078;28;20443;-70
2021/12/02 03:33:50;;;;;;;5.00;4.17;;;;;;;;;;4995129;28;20796;-72
2021/12/02 03:36:17;;;;;;;7.13;3.17;;;;;;;;;;4994980;28;20525;-72
2021/12/02 03:38:43;;;;;;;4.30;3.97;;;;;;;;;;4994860;28;20386;-71
2021/12/02 03:41:09;;;;;;;4.73;3.17;;;;;;;;;;4994852;28;20916;-70
2021/12/02 03:43:35;;;;;;;3.03;1.67;;;;;;;;;;4994799;28;20964;-69
2021/12/02 03:46:02;;;;;;;2.70;2.10;;;;;;;;;;4994792;28;20417;-68
2021/12/02 03:48:27;;;;;;;1.83;1.43;;;;;;;;;;4994702;28;20459;-70
2021/12/02 03:50:53;;;;;;;3.40;1.53;;;;;;;;;;4994733;28;20406;-71
2021/12/02 03:53:19;;;;;;;4.10;1.77;;;;;;;;;;4994521;28;20390;-71
2021/12/02 03:55:45;;;;;;;2.83;2.10;;;;;;;;;;4994625;28;20770;-72
2021/12/02 03:58:11;;;;;;;2.70;2.50;;;;;;;;;;4994319;28;20385;-70
2021/12/02 04:00:37;;;;;;;4.53;1.90;;;;;;;;;;4994527;28;20472;-71
2021/12/02 04:03:03;;;;;;;4.83;1.87;;;;;;;;;;4994510;28;20502;-71
2021/12/02 04:05:29;;;;;;;2.33;1.80;;;;;;;;;;4994418;28;20420;-67
2021/12/02 04:07:55;;;;;;;4.63;2.13;;;;;;;;;;4994327;28;20457;-67
2021/12/02 04:10:22;;;;;;;2.07;1.87;;;;;;;;;;4994387;28;20437;-67
2021/12/02 04:15:26;;;;;;;12.63;2.47;;;;;;;;;;4994277;28;20469;-67
2021/12/02 04:17:52;;;;;;;4.87;2.03;;;;;;;;;;4994323;28;20413;-67
2021/12/02 04:20:19;;;;;;;4.37;2.30;;;;;;;;;;4994520;28;20418;-66
2021/12/02 04:22:45;;;;;;;2.00;1.90;;;;;;;;;;4994129;28;20489;-66
2021/12/02 04:25:12;;;;;;;7.37;2.60;;;;;;;;;;4994165;28;20406;-67
2021/12/02 04:27:38;;;;;;;8.13;2.03;;;;;;;;;;4994197;28;20411;-66
2021/12/02 04:30:05;;;;;;;4.90;2.30;;;;;;;;;;4994153;28;20885;-67
2021/12/02 04:32:32;;;;;;;4.23;2.20;;;;;;;;;;4994155;28;20501;-66
2021/12/02 04:34:58;;;;;;;3.00;2.30;;;;;;;;;;4994004;28;20830;-66
2021/12/02 04:37:24;;;;;;;3.17;1.80;;;;;;;;;;4993994;28;20425;-68
2021/12/02 04:39:50;;;;;;;2.57;2.37;;;;;;;;;;4994015;28;20410;-67
2021/12/02 04:42:16;;;;;;;5.53;1.90;;;;;;;;;;4993988;28;20484;-67
2021/12/02 04:44:42;;;;;;;8.53;2.83;;;;;;;;;;4994065;28;20413;-67
2021/12/02 04:47:09;;;;;;;3.70;2.20;;;;;;;;;;4993927;28;20409;-67
2021/12/02 04:49:35;;;;;;;4.00;2.50;;;;;;;;;;4976496;28;20485;-67
2021/12/02 04:52:02;;;;;;;2.67;2.43;;;;;;;;;;4993947;28;20392;-67
2021/12/02 04:54:28;;;;;;;2.50;2.33;;;;;;;;;;4993813;28;21063;-67
2021/12/02 04:56:54;;;;;;;9.37;3.00;;;;;;;;;;4976404;28;20415;-67
2021/12/02 04:59:20;;;;;;;4.93;2.60;;;;;;;;;;4993861;28;20413;-66
2021/12/02 05:01:46;;;;;;;6.47;3.20;;;;;;;;;;4993869;28;20948;-67
2021/12/02 05:04:12;;;;;;;6.83;3.50;;;;;;;;;;4993785;28;20582;-67
2021/12/02 05:06:38;;;;;;;5.83;2.27;;;;;;;;;;4993668;28;20636;-67
2021/12/02 05:09:04;;;;;;;3.70;3.17;;;;;;;;;;4993798;28;20450;-67
2021/12/02 05:11:30;;;;;;;6.60;3.60;;;;;;;;;;4996723;28;20380;-66
2021/12/02 05:13:56;;;;;;;6.03;3.57;;;;;;;;;;4997531;28;20439;-67
2021/12/02 05:16:22;;;;;;;5.80;3.07;;;;;;;;;;4997538;28;20376;-67
2021/12/02 05:18:48;;;;;;;5.00;2.40;;;;;;;;;;4997194;28;20388;-67
2021/12/02 05:21:14;;;;;;;9.63;2.33;;;;;;;;;;4997316;28;20785;-67
2021/12/02 05:23:40;;;;;;;19.73;12.00;;;;;;;;;;4997289;28;20919;-67
2021/12/02 05:26:06;;;;;;;9.10;3.40;;;;;;;;;;4980211;28;20737;-66
2021/12/02 05:28:32;;;;;;;8.80;3.53;;;;;;;;;;4979806;28;20427;-67
2021/12/02 05:30:58;;;;;;;12.10;3.50;;;;;;;;;;4997294;28;20754;-67
2021/12/02 05:33:24;;;;;;;7.77;3.30;;;;;;;;;;4997204;28;20417;-67
2021/12/02 05:35:50;;;;;;;10.17;3.00;;;;;;;;;;4997147;28;20898;-67
2021/12/02 05:38:16;;;;;;;7.63;3.63;;;;;;;;;;4997165;28;20479;-68
2021/12/02 05:40:42;;;;;;;8.67;2.97;;;;;;;;;;4997094;28;20440;-66
2021/12/02 05:43:08;;;;;;;4.43;2.60;;;;;;;;;;4997029;28;20763;-67
2021/12/02 05:45:34;;;;;;;8.03;3.77;;;;;;;;;;4997305;28;20416;-67
2021/12/02 05:47:59;;;;;;;2.70;2.50;;;;;;;;;;4997004;28;20421;-67
2021/12/02 05:50:26;;;;;;;3.27;1.90;;;;;;;;;;4979460;28;20413;-66
2021/12/02 05:52:52;;;;;;;4.83;3.07;;;;;;;;;;4996913;28;20417;-67
2021/12/02 05:55:18;;;;;;;6.53;2.93;;;;;;;;;;4996831;28;20803;-66
2021/12/02 05:57:44;;;;;;;5.03;2.53;;;;;;;;;;4996771;28;20383;-67
2021/12/02 06:00:10;;;;;;;4.30;1.90;;;;;;;;;;4996746;28;20384;-67
2021/12/02 06:02:36;;;;;;;5.70;1.83;;;;;;;;;;4996508;28;20406;-67
2021/12/02 06:05:03;;;;;;;6.60;2.00;;;;;;;;;;4996647;28;20408;-66
2021/12/02 06:07:29;;;;;;;3.03;2.00;;;;;;;;;;4996262;28;20477;-66
2021/12/02 06:09:55;;;;;;;4.30;1.77;;;;;;;;;;4996769;28;20402;-67
2021/12/02 06:12:21;;;;;;;8.33;1.60;;;;;;;;;;4996439;28;20520;-68
2021/12/02 06:14:47;;;;;;;2.50;1.73;;;;;;;;;;4996552;28;20447;-67
2021/12/02 06:17:13;;;;;;;1.43;1.33;;;;;;;;;;4996470;28;20416;-68
2021/12/02 06:19:39;;;;;;;1.67;1.57;;;;;;;;;;4996294;28;20413;-67
2021/12/02 06:22:05;;;;;;;5.07;1.40;;;;;;;;;;4996151;28;20418;-67
2021/12/02 06:24:42;;;;;;;1.30;1.20;;;;;;;;;;4996257;28;20437;-67
2021/12/02 06:27:08;;;;;;;2.33;1.30;;;;;;;;;;4996239;28;20397;-66
2021/12/02 06:29:34;;;;;;;3.10;1.40;;;;;;;;;;4996191;28;20406;-67
2021/12/02 06:32:00;;;;;;;3.43;1.50;;;;;;;;;;4996029;28;20406;-67
2021/12/02 06:34:26;;;;;;;2.13;1.97;;;;;;;;;;4996080;28;20471;-67
2021/12/02 06:36:52;;;;;;;1.80;1.70;;;;;;;;;;4978529;28;20981;-67
2021/12/02 06:39:18;;;;;;;4.40;1.85;;;;;;;;;;4995340;28;20399;-67
2021/12/02 06:41:44;;;;;;;4.90;3.37;;;;;;;;;;4978423;28;20213;-66
2021/12/02 06:44:10;;;;;;;2.77;2.10;;;;;;;;;;4995907;28;20408;-65
2021/12/02 06:46:36;;;;;;;2.40;1.40;;;;;;;;;;4995862;28;20391;-66
2021/12/02 06:49:02;;;;;;;1.53;1.33;;;;;;;;;;4995507;28;20417;-69
2021/12/02 06:51:28;;;;;;;2.83;1.37;;;;;;;;;;4995831;28;20418;-68
2021/12/02 06:53:54;;;;;;;1.33;1.23;;;;;;;;;;4995646;28;20511;-67
2021/12/02 06:56:20;;;;;;;1.87;1.37;;;;;;;;;;4995643;28;20425;-67
2021/12/02 06:58:46;;;;;;;3.70;3.23;;;;;;;;;;4995649;28;20812;-68
2021/12/02 07:01:12;;;;;;;3.27;1.57;;;;;;;;;;4995877;28;20451;-67
2021/12/02 07:03:38;;;;;;;1.40;1.30;;;;;;;;;;4995599;28;20372;-67
2021/12/02 07:06:04;;;;;;;1.17;1.17;;;;;;;;;;4977882;28;20532;-67
2021/12/02 07:08:31;;;;;;;1.60;1.60;;;;;;;;;;4995416;28;20396;-69
2021/12/02 07:11:04;;;;;;;2.27;1.47;;;;;;;;;;4995555;28;20883;-69
2021/12/02 07:13:30;;;;;;;1.87;1.77;;;;;;;;;;4994752;28;20473;-67
2021/12/02 07:15:57;;;;;;;3.50;1.80;;;;;;;;;;4995232;28;20446;-67
2021/12/02 07:18:25;;;;;;;1.53;1.40;;;;;;;;;;4995336;28;20913;-67
2021/12/02 07:20:50;;;;;;;1.47;1.40;;;;;;;;;;4995253;28;20402;-67
2021/12/02 07:23:18;;;;;;;3.27;1.90;;;;;;;;;;4995104;28;20915;-67
2021/12/02 07:25:45;;;;;;;4.47;1.80;;;;;;;;;;4995264;28;20402;-67
2021/12/02 07:28:11;;;;;;;2.70;1.47;;;;;;;;;;4977579;28;20421;-69
2021/12/02 07:30:37;;;;;;;1.70;1.30;;;;;;;;;;4995347;28;20406;-69
2021/12/02 07:33:04;;;;;;;1.70;1.40;;;;;;;;;;4994556;28;20906;-67
2021/12/02 07:35:31;;;;;;;2.13;1.60;;;;;;;;;;4994922;28;20540;-66
2021/12/02 07:37:58;;;;;;;4.40;1.90;;;;;;;;;;4994817;28;20428;-65
2021/12/02 07:40:25;;;;;;;3.03;1.70;;;;;;;;;;4995136;28;20417;-66
2021/12/02 07:42:52;;;;;;;3.17;1.80;;;;;;;;;;4977270;28;20804;-66
2021/12/02 07:45:18;;;;;;;4.40;1.73;;;;;;;;;;4994802;28;20442;-66
2021/12/02 07:47:44;;;;;;;8.90;2.20;;;;;;;;;;4994739;28;20902;-66
2021/12/02 07:50:12;;;;;;;1.20;1.20;;;;;;;;;;4994729;28;20964;-66
2021/12/02 07:52:40;;;;;;;3.33;2.00;;;;;;;;;;4994596;28;20403;-66
2021/12/02 07:55:07;;;;;;;2.47;1.83;;;;;;;;;;4994435;28;20494;-65
2021/12/02 07:57:34;;;;;;;3.23;1.60;;;;;;;;;;4994548;28;20475;-66
2021/12/02 08:00:00;;;;;;;2.00;1.43;;;;;;;;;;4994581;28;20458;-66
2021/12/02 08:02:33;;;;;;;2.50;1.90;;;;;;;;;;4994504;28;20553;-66
2021/12/02 08:04:59;;;;;;;5.03;1.93;;;;;;;;;;4994503;28;20403;-65
2021/12/02 08:07:25;;;;;;;3.13;2.27;;;;;;;;;;4994185;28;20451;-66
2021/12/02 08:09:51;;;;;;;3.30;1.50;;;;;;;;;;4994451;28;20544;-66
2021/12/02 08:12:17;;;;;;;3.77;1.70;;;;;;;;;;4994309;28;20505;-65
2021/12/02 08:14:43;;;;;;;1.60;1.50;;;;;;;;;;4994233;28;20572;-65
2021/12/02 08:17:09;;;;;;;1.87;1.77;;;;;;;;;;4994284;28;20467;-66
2021/12/02 08:19:35;;;;;;;4.37;2.10;;;;;;;;;;4994249;28;20381;-65
2021/12/02 08:22:01;;;;;;;1.70;1.60;;;;;;;;;;4976727;28;20429;-66
2021/12/02 08:24:27;;;;;;;2.60;1.80;;;;;;;;;;4994194;28;20822;-66
2021/12/02 08:26:54;;;;;;;2.20;1.93;;;;;;;;;;4994347;28;20471;-67
2021/12/02 08:29:21;;;;;;;2.03;1.50;;;;;;;;;;4994056;28;20887;-66
2021/12/02 08:31:47;;;;;;;2.67;1.20;;;;;;;;;;4994130;28;20742;-69
2021/12/02 08:34:15;;;;;;;5.33;1.70;;;;;;;;;;4994201;28;20523;-68
2021/12/02 08:36:43;;;;;;;3.23;1.70;;;;;;;;;;4994021;28;20830;-67
2021/12/02 08:39:15;;;;;;;4.57;1.90;;;;;;;;;;4994066;28;20410;-66
2021/12/02 08:41:44;;;;;;;5.60;1.80;;;;;;;;;;4993936;28;20376;-65
2021/12/02 08:44:11;;;;;;;2.40;2.30;;;;;;;;;;4976601;28;20455;-67
2021/12/02 08:46:37;;;;;;;1.87;1.77;;;;;;;;;;4997392;28;20380;-66
2021/12/02 08:49:04;;;;;;;5.80;2.00;;;;;;;;;;4998293;28;20410;-66
2021/12/02 08:51:30;;;;;;;3.30;2.23;;;;;;;;;;4997984;28;20736;-66
2021/12/02 08:53:56;;;;;;;2.40;2.03;;;;;;;;;;4997931;28;20449;-66
2021/12/02 08:56:22;;;;;;;2.20;2.00;;;;;;;;;;4997948;28;20423;-65
2021/12/02 08:58:48;;;;;;;1.87;1.77;;;;;;;;;;4997939;28;20906;-66
2021/12/02 09:01:14;;;;;;;4.70;2.27;;;;;;;;;;4998082;28;20386;-65
2021/12/02 09:03:41;;;;;;;2.97;1.90;;;;;;;;;;4998056;28;20380;-66
2021/12/02 09:06:10;;;;;;;3.53;2.30;;;;;;;;;;4997525;28;20465;-65
2021/12/02 09:08:37;;;;;;;5.90;1.73;;;;;;;;;;4997945;28;20418;-66
2021/12/02 09:11:03;;;;;;;1.90;1.77;;;;;;;;;;4997724;28;20405;-66
2021/12/02 09:13:30;;;;;;;3.93;2.00;;;;;;;;;;4997601;28;20480;-66
2021/12/02 09:15:56;;;;;;;1.90;1.80;;;;;;;;;;4997589;28;20425;-67
2021/12/02 09:18:22;;;;;;;5.33;3.30;;;;;;;;;;4997687;28;20404;-66
2021/12/02 09:20:48;;;;;;;5.33;3.57;;;;;;;;;;4997563;28;20442;-67
2021/12/02 09:23:15;;;;;;;3.30;3.10;;;;;;;;;;4997668;28;20417;-67
2021/12/02 09:25:41;;;;;;;2.30;2.10;;;;;;;;;;4997450;28;20442;-67
2021/12/02 09:28:09;;;;;;;3.13;1.90;;;;;;;;;;4997360;28;20434;-66
2021/12/02 09:30:36;;;;;;;4.20;2.70;;;;;;;;;;4997295;28;20376;-66
2021/12/02 09:33:02;;;;;;;3.13;2.67;;;;;;;;;;4997266;28;20442;-66
2021/12/02 09:35:28;;;;;;;8.27;3.77;;;;;;;;;;4997239;28;20956;-66
2021/12/02 09:37:54;;;;;;;7.27;3.40;;;;;;;;;;4997068;28;20392;-66
2021/12/02 09:40:21;;;;;;;6.23;2.63;;;;;;;;;;4997399;28;20411;-65
2021/12/02 09:42:47;;;;;;;5.20;2.90;;;;;;;;;;4997086;28;20496;-66
2021/12/02 09:45:13;;;;;;;6.43;2.93;;;;;;;;;;4997022;28;20412;-65
2021/12/02 09:47:42;;;;;;;6.63;2.20;;;;;;;;;;4997146;28;20424;-65
2021/12/02 09:50:12;;;;;;;6.70;2.53;;;;;;;;;;4997010;28;20377;-66
2021/12/02 09:52:40;;;;;;;5.13;2.63;;;;;;;;;;4979461;28;20483;-65
2021/12/02 09:55:16;;;;;;;4.53;2.97;;;;;;;;;;4996695;28;20559;-66
2021/12/02 09:57:45;;;;;;;6.00;2.60;;;;;;;;;;4996415;28;20918;-66
2021/12/02 10:00:18;;;;;;;4.30;2.60;;;;;;;;;;4996814;28;20408;-67
2021/12/02 10:02:53;;;;;;;3.53;2.80;;;;;;;;;;4978420;28;20417;-64
2021/12/02 10:05:27;;;;;;;3.50;2.70;;;;;;;;;;4994554;28;20421;-64
2021/12/02 10:08:00;;;;;;;6.10;3.37;;;;;;;;;;4994293;28;20514;-65
2021/12/02 10:10:51;;;;;;;7.17;3.53;;;;;;;;;;4977160;28;20945;-65
2021/12/02 10:13:32;;;;;;;5.03;3.70;;;;;;;;;;4993883;28;20432;-65
2021/12/02 10:16:32;;;;;;;7.27;3.57;;;;;;;;;;4994499;28;20895;-65
2021/12/02 10:19:13;;;;;;;5.20;3.20;;;;;;;;;;4994290;28;20416;-67
2021/12/02 10:21:45;;;;;;;4.00;3.10;;;;;;;;;;4994601;28;20425;-68
2021/12/02 10:24:13;;;;;;;3.27;2.97;;;;;;;;;;4994705;28;20512;-68
2021/12/02 10:26:43;;;;;;;6.20;3.30;;;;;;;;;;4994191;28;20388;-69
2021/12/02 10:29:15;;;;;;;3.90;3.60;;;;;;;;;;4994349;28;20384;-70
2021/12/02 10:31:46;;;;;;;3.67;3.37;;;;;;;;;;4996220;28;20868;-66
2021/12/02 10:34:12;;;;;;;3.87;2.80;;;;;;;;;;4996049;28;20842;-70
2021/12/02 10:36:40;;;;;;;6.80;2.83;;;;;;;;;;4996118;28;20413;-68
2021/12/02 10:39:12;;;;;;;10.53;3.33;;;;;;;;;;4996114;28;20417;-66
2021/12/02 10:41:42;;;;;;;3.90;3.00;;;;;;;;;;4996334;28;20380;-66
2021/12/02 10:44:17;;;;;;;3.20;3.00;;;;;;;;;;4995410;28;20416;-69
2021/12/02 10:47:01;;;;;;;6.10;3.23;;;;;;;;;;4996086;28;20418;-70
2021/12/02 10:49:28;;;;;;;8.53;3.90;;;;;;;;;;4996229;28;20398;-69
2021/12/02 10:51:56;;;;;;;4.17;2.77;;;;;;;;;;4996109;28;20497;-68
2021/12/02 10:54:24;;;;;;;4.63;2.60;;;;;;;;;;4995782;28;20441;-67
2021/12/02 10:56:51;;;;;;;3.37;3.07;;;;;;;;;;4995858;28;20385;-67
2021/12/02 10:59:26;;;;;;;5.70;2.33;;;;;;;;;;4995814;28;20449;-67
2021/12/02 11:01:53;;;;;;;2.63;2.03;;;;;;;;;;4995846;28;20406;-67
2021/12/02 11:04:20;;;;;;;3.20;2.33;;;;;;;;;;4995637;28;20923;-67
2021/12/02 11:06:46;;;;;;;2.07;1.97;;;;;;;;;;4995607;28;20494;-67
2021/12/02 11:09:25;;;;;;;1.70;1.47;;;;;;;;;;4994988;28;20384;-67
2021/12/02 11:12:09;;;;;;;3.70;1.93;;;;;;;;;;4995502;28;20398;-67
2021/12/02 11:14:36;;;;;;;2.10;1.50;;;;;;;;;;4995499;28;20465;-68
2021/12/02 11:17:08;;;;;;;1.43;1.43;;;;;;;;;;4995448;28;20384;-67
2021/12/02 11:19:34;;;;;;;1.33;1.27;;;;;;;;;;4995425;28;20467;-68
2021/12/02 11:22:10;;;;;;;2.20;1.83;;;;;;;;;;4995302;28;20892;-67
2021/12/02 11:24:37;;;;;;;1.40;1.40;;;;;;;;;;4995221;28;20402;-67
2021/12/02 11:27:11;;;;;;;2.20;1.60;;;;;;;;;;4995160;28;20398;-68
2021/12/02 11:29:47;;;;;;;1.10;1.10;;;;;;;;;;4995390;28;20440;-67
2021/12/02 11:32:31;;;;;;;1.30;1.20;;;;;;;;;;4995349;28;20758;-67
2021/12/02 11:35:01;;;;;;;1.10;1.10;;;;;;;;;;4995015;28;20457;-67
2021/12/02 11:37:28;;;;;;;1.40;1.40;;;;;;;;;;4995284;28;20376;-67
2021/12/02 11:39:55;;;;;;;1.73;1.73;;;;;;;;;;4995075;28;20380;-68
2021/12/02 11:42:21;;;;;;;1.57;1.57;;;;;;;;;;4994907;28;20868;-67
2021/12/02 11:44:48;;;;;;;1.37;1.27;;;;;;;;;;4994937;28;20384;-67
2021/12/02 11:47:14;;;;;;;1.17;0.83;;;;;;;;;;4995035;28;20398;-68
2021/12/02 11:49:41;;;;;;;1.50;1.50;;;;;;;;;;4994848;28;20405;-69
2021/12/02 11:52:08;;;;;;;0.80;0.80;;;;;;;;;;4994827;28;20404;-67
2021/12/02 11:54:34;;;;;;;1.40;1.30;;;;;;;;;;4994877;28;20543;-67
2021/12/02 11:57:00;;;;;;;1.07;1.07;;;;;;;;;;4994989;28;20406;-68
2021/12/02 11:59:27;;;;;;;0.80;0.80;;;;;;;;;;4994929;28;20446;-67
2021/12/02 12:01:57;;;;;;;1.03;1.03;;;;;;;;;;4994683;28;20406;-67
2021/12/02 12:04:23;;;;;;;1.20;1.20;;;;;;;;;;4994605;28;20381;-67
2021/12/02 12:07:08;;;;;;;4.00;1.03;;;;;;;;;;4994596;28;20504;-67
2021/12/02 12:09:34;;;;;;;0.67;0.67;;;;;;;;;;4994685;28;20392;-68
2021/12/02 12:12:01;;;;;;;2.67;0.70;;;;;;;;;;4994533;28;20752;-67
2021/12/02 12:14:37;;;;;;;0.80;0.80;;;;;;;;;;4994691;28;20496;-67
2021/12/02 12:17:05;;;;;;;1.00;1.00;;;;;;;;;;4994489;28;20889;-68
2021/12/02 12:19:33;;;;;;;1.50;1.40;;;;;;;;;;4994491;28;20471;-68
2021/12/02 12:22:06;;;;;;;1.80;1.80;;;;;;;;;;4994212;28;20403;-67
2021/12/02 12:24:49;;;;;;;1.90;1.90;;;;;;;;;;4994401;28;20379;-68
2021/12/02 12:27:17;;;;;;;2.20;1.40;;;;;;;;;;4994567;28;20766;-67
2021/12/02 12:29:43;;;;;;;1.73;1.73;;;;;;;;;;4994555;28;20391;-67
2021/12/02 12:32:37;;;;;;;1.95;1.95;;;;;;;;;;4994443;28;20170;-68
2021/12/02 12:35:02;;;;;;;3.03;1.37;;;;;;;;;;4993363;28;20623;-68
2021/12/02 12:37:35;;;;;;;1.10;1.07;;;;;;;;;;4994444;28;20424;-69
2021/12/02 12:40:13;;;;;;;1.80;1.80;;;;;;;;;;4994270;28;20376;-68
2021/12/02 12:42:40;;;;;;;4.25;2.95;;;;;;;;;;4994161;28;20419;-68
2021/12/02 12:45:08;;;;;;;5.20;4.13;;;;;;;;;;4994109;28;20644;-68
2021/12/02 12:47:46;;;;;;;3.08;2.40;;;;;;;;;;4994061;28;20410;-68
2021/12/02 12:50:30;;;;;;;1.75;1.75;;;;;;;;;;4994266;28;20213;-68
2021/12/02 12:53:06;;;;;;;1.10;1.10;;;;;;;;;;4994257;28;20257;-68
2021/12/02 12:55:33;;;;;;;1.93;1.60;;;;;;;;;;4994160;28;20214;-68
2021/12/02 12:58:11;;;;;;;1.50;1.50;;;;;;;;;;4994194;28;20400;-67
2021/12/02 13:00:39;;;;;;;3.00;1.50;;;;;;;;;;4993427;28;20586;-68
2021/12/02 13:03:11;;;;;;;3.88;2.53;;;;;;;;;;4993575;28;20648;-68
2021/12/02 13:05:42;;;;;;;3.70;3.60;;;;;;;;;;4993770;28;20170;-69
2021/12/02 13:08:20;;;;;;;4.28;4.03;;;;;;;;;;4993455;28;20239;-68
2021/12/02 13:10:52;;;;;;;3.00;3.00;;;;;;;;;;4993972;28;20269;-69
2021/12/02 13:13:22;;;;;;;3.80;3.70;;;;;;;;;;4993629;28;20436;-72
2021/12/02 13:15:48;;;;;;;5.70;5.20;;;;;;;;;;4993880;28;20248;-72
2021/12/02 13:18:31;;;;;;;4.63;4.33;;;;;;;;;;4993902;28;20622;-70
2021/12/02 13:20:57;;;;;;;3.78;3.47;;;;;;;;;;4993519;28;20941;-69
2021/12/02 13:23:26;;;;;;;8.63;5.00;;;;;;;;;;4993616;28;20685;-69
2021/12/02 13:25:56;;;;;;;2.53;2.43;;;;;;;;;;4993938;28;20474;-67
2021/12/02 13:28:33;;;;;;;3.63;3.30;;;;;;;;;;4993700;28;20376;-69
2021/12/02 13:31:01;;;;;;;2.77;2.77;;;;;;;;;;4994441;28;20464;-68
2021/12/02 13:33:37;;;;;;;2.03;1.93;;;;;;;;;;4997318;28;20541;-67
2021/12/02 13:36:04;;;;;;;1.43;1.43;;;;;;;;;;4997157;28;20504;-68
2021/12/02 13:38:30;;;;;;;1.83;1.73;;;;;;;;;;4997290;28;20924;-66
2021/12/02 13:40:56;;;;;;;5.13;2.07;;;;;;;;;;4997295;28;20952;-67
2021/12/02 13:43:22;;;;;;;1.70;1.70;;;;;;;;;;4997170;28;20372;-69
2021/12/02 13:45:48;;;;;;;1.30;1.20;;;;;;;;;;4997338;28;20426;-68
2021/12/02 13:48:18;;;;;;;2.20;1.63;;;;;;;;;;4996827;28;20401;-67
2021/12/02 13:50:48;;;;;;;1.63;1.63;;;;;;;;;;4997326;28;20485;-68
2021/12/02 13:53:15;;;;;;;6.97;5.13;;;;;;;;;;4997199;28;20910;-68
2021/12/02 13:55:44;;;;;;;4.50;4.10;;;;;;;;;;4997071;28;20567;-68
2021/12/02 14:00:41;;;;;;;3.20;2.03;;;;;;;;;;4997164;28;20501;-68
2021/12/02 14:03:09;;;;;;;1.73;1.63;;;;;;;;;;4996818;28;20703;-68
2021/12/02 14:05:36;;;;;;;1.77;1.67;;;;;;;;;;4996828;28;20877;-67
2021/12/02 14:08:04;;;;;;;1.30;1.30;;;;;;;;;;4996561;28;20543;-67
2021/12/02 14:10:31;;;;;;;2.20;1.70;;;;;;;;;;4996676;28;20418;-71
2021/12/02 14:12:59;;;;;;;1.07;1.07;;;;;;;;;;4996664;28;20426;-72
2021/12/02 14:15:26;;;;;;;1.20;1.20;;;;;;;;;;4996579;28;20539;-75
2021/12/02 14:17:58;;;;;;;1.17;1.17;;;;;;;;;;4996776;28;20441;-72
2021/12/02 14:20:25;;;;;;;1.10;1.10;;;;;;;;;;4996555;28;20376;-72
2021/12/02 14:22:54;;;;;;;1.33;1.30;;;;;;;;;;4996398;28;20413;-72
2021/12/02 14:25:20;;;;;;;1.07;1.07;;;;;;;;;;4996726;28;20817;-71
2021/12/02 14:28:05;;;;;;;1.90;1.70;;;;;;;;;;4996359;28;20773;-72
2021/12/02 14:30:36;;;;;;;1.90;1.90;;;;;;;;;;4996201;28;20399;-72
2021/12/02 14:33:04;;;;;;;1.00;1.00;;;;;;;;;;4996525;28;20440;-72
2021/12/02 14:35:40;;;;;;;1.50;0.87;;;;;;;;;;4996026;28;20479;-72
2021/12/02 14:38:15;;;;;;;1.10;1.10;;;;;;;;;;4996099;28;20368;-73
2021/12/02 14:40:45;;;;;;;11.50;10.50;;;;;;;;;;4996130;28;20489;-69
2021/12/02 14:43:15;;;;;;;40.20;20.73;;;;;;;;;;4994841;28;20365;-68
2021/12/02 14:45:41;;;;;;;7.37;6.77;;;;;;;;;;4996015;28;20893;-70
2021/12/02 14:48:18;;;;;;;5.73;5.23;;;;;;;;;;4995993;28;20398;-68
2021/12/02 14:50:44;;;;;;;4.00;3.90;;;;;;;;;;4995842;28;20872;-69
2021/12/02 14:53:27;;;;;;;17.20;10.73;;;;;;;;;;4995786;28;20863;-68
2021/12/02 14:55:53;;;;;;;7.37;5.53;;;;;;;;;;4995733;28;20465;-69
2021/12/02 14:58:19;;;;;;;3.93;3.73;;;;;;;;;;4995740;28;20406;-70
2021/12/02 15:00:45;;;;;;;4.73;4.60;;;;;;;;;;4978292;28;20407;-68